sensor_id;sensor_type;location;lat;lon;timestamp;P1;durP1;ratioP1;P2;durP2;ratioP2
51266;SDS011;37338;47.426;19.204;2023-07-20T00:01:12;10.20;;;3.10;;
51266;SDS011;37338;47.426;19.204;2023-07-20T00:03:38;6.57;;;3.38;;
51266;SDS011;37338;47.426;19.204;2023-07-20T00:06:03;8.77;;;2.97;;
51266;SDS011;37338;47.426;19.204;2023-07-20T00:08:29;7.15;;;3.92;;
51266;SDS011;37338;47.426;19.204;2023-07-20T00:10:54;10.02;;;3.38;;
51266;SDS011;37338;47.426;19.204;2023-07-20T00:13:20;10.20;;;4.00;;
51266;SDS011;37338;47.426;19.204;2023-07-20T00:15:46;6.32;;;4.38;;
51266;SDS011;37338;47.426;19.204;2023-07-20T00:18:11;9.75;;;3.90;;
51266;SDS011;37338;47.426;19.204;2023-07-20T00:20:37;12.23;;;4.80;;
51266;SDS011;37338;47.426;19.204;2023-07-20T00:23:02;8.23;;;3.90;;
51266;SDS011;37338;47.426;19.204;2023-07-20T00:25:28;6.03;;;3.25;;
51266;SDS011;37338;47.426;19.204;2023-07-20T00:27:53;10.98;;;3.88;;
51266;SDS011;37338;47.426;19.204;2023-07-20T00:30:18;7.00;;;3.35;;
51266;SDS011;37338;47.426;19.204;2023-07-20T00:32:44;8.10;;;3.83;;
51266;SDS011;37338;47.426;19.204;2023-07-20T00:35:09;7.18;;;3.25;;
51266;SDS011;37338;47.426;19.204;2023-07-20T00:37:36;5.88;;;3.35;;
51266;SDS011;37338;47.426;19.204;2023-07-20T00:40:02;8.57;;;3.65;;
51266;SDS011;37338;47.426;19.204;2023-07-20T00:42:30;12.00;;;4.95;;
51266;SDS011;37338;47.426;19.204;2023-07-20T00:44:56;6.70;;;4.75;;
51266;SDS011;37338;47.426;19.204;2023-07-20T00:47:21;10.45;;;6.63;;
51266;SDS011;37338;47.426;19.204;2023-07-20T00:49:46;11.52;;;6.00;;
51266;SDS011;37338;47.426;19.204;2023-07-20T00:52:13;18.25;;;7.70;;
51266;SDS011;37338;47.426;19.204;2023-07-20T00:54:39;9.90;;;5.40;;
51266;SDS011;37338;47.426;19.204;2023-07-20T00:57:06;8.75;;;5.75;;
51266;SDS011;37338;47.426;19.204;2023-07-20T00:59:32;12.60;;;6.32;;
51266;SDS011;37338;47.426;19.204;2023-07-20T01:01:59;9.15;;;6.45;;
51266;SDS011;37338;47.426;19.204;2023-07-20T01:04:24;10.15;;;6.00;;
51266;SDS011;37338;47.426;19.204;2023-07-20T01:09:28;9.70;;;5.03;;
51266;SDS011;37338;47.426;19.204;2023-07-20T01:12:13;11.25;;;5.45;;
51266;SDS011;37338;47.426;19.204;2023-07-20T01:14:46;12.63;;;6.07;;
51266;SDS011;37338;47.426;19.204;2023-07-20T01:17:12;12.82;;;6.82;;
51266;SDS011;37338;47.426;19.204;2023-07-20T01:19:38;9.93;;;5.72;;
51266;SDS011;37338;47.426;19.204;2023-07-20T01:30:50;18.60;;;9.55;;
51266;SDS011;37338;47.426;19.204;2023-07-20T01:33:20;16.20;;;9.77;;
51266;SDS011;37338;47.426;19.204;2023-07-20T01:35:54;17.60;;;9.20;;
51266;SDS011;37338;47.426;19.204;2023-07-20T01:38:21;22.75;;;8.13;;
51266;SDS011;37338;47.426;19.204;2023-07-20T01:40:48;16.40;;;7.72;;
51266;SDS011;37338;47.426;19.204;2023-07-20T01:43:14;14.63;;;7.75;;
51266;SDS011;37338;47.426;19.204;2023-07-20T01:45:39;16.50;;;7.97;;
51266;SDS011;37338;47.426;19.204;2023-07-20T01:48:05;17.13;;;9.10;;
51266;SDS011;37338;47.426;19.204;2023-07-20T01:50:30;14.45;;;7.72;;
51266;SDS011;37338;47.426;19.204;2023-07-20T01:52:56;17.58;;;7.55;;
51266;SDS011;37338;47.426;19.204;2023-07-20T01:55:21;16.20;;;7.53;;
51266;SDS011;37338;47.426;19.204;2023-07-20T01:57:46;24.40;;;6.85;;
51266;SDS011;37338;47.426;19.204;2023-07-20T02:00:12;13.00;;;5.72;;
51266;SDS011;37338;47.426;19.204;2023-07-20T02:02:38;15.75;;;5.78;;
51266;SDS011;37338;47.426;19.204;2023-07-20T02:05:03;14.80;;;6.45;;
51266;SDS011;37338;47.426;19.204;2023-07-20T02:07:28;18.25;;;6.07;;
51266;SDS011;37338;47.426;19.204;2023-07-20T02:09:54;18.98;;;6.55;;
51266;SDS011;37338;47.426;19.204;2023-07-20T02:12:19;16.13;;;6.53;;
51266;SDS011;37338;47.426;19.204;2023-07-20T02:14:44;12.60;;;5.75;;
51266;SDS011;37338;47.426;19.204;2023-07-20T02:17:10;19.27;;;5.10;;
51266;SDS011;37338;47.426;19.204;2023-07-20T02:19:36;12.02;;;4.82;;
51266;SDS011;37338;47.426;19.204;2023-07-20T02:22:02;14.23;;;5.80;;
51266;SDS011;37338;47.426;19.204;2023-07-20T02:24:27;13.15;;;4.72;;
51266;SDS011;37338;47.426;19.204;2023-07-20T02:26:52;8.15;;;3.83;;
51266;SDS011;37338;47.426;19.204;2023-07-20T02:29:18;9.98;;;3.60;;
51266;SDS011;37338;47.426;19.204;2023-07-20T02:31:43;10.88;;;3.47;;
51266;SDS011;37338;47.426;19.204;2023-07-20T02:34:09;9.65;;;3.30;;
51266;SDS011;37338;47.426;19.204;2023-07-20T02:36:34;11.20;;;3.50;;
51266;SDS011;37338;47.426;19.204;2023-07-20T02:39:00;7.53;;;3.40;;
51266;SDS011;37338;47.426;19.204;2023-07-20T02:41:27;8.57;;;2.85;;
51266;SDS011;37338;47.426;19.204;2023-07-20T02:43:52;8.25;;;3.85;;
51266;SDS011;37338;47.426;19.204;2023-07-20T02:46:18;8.75;;;3.92;;
51266;SDS011;37338;47.426;19.204;2023-07-20T02:48:43;10.07;;;3.53;;
51266;SDS011;37338;47.426;19.204;2023-07-20T02:51:09;10.70;;;3.05;;
51266;SDS011;37338;47.426;19.204;2023-07-20T02:53:34;10.15;;;3.90;;
51266;SDS011;37338;47.426;19.204;2023-07-20T02:56:00;7.88;;;2.92;;
51266;SDS011;37338;47.426;19.204;2023-07-20T02:58:25;10.40;;;3.97;;
51266;SDS011;37338;47.426;19.204;2023-07-20T03:00:50;14.93;;;3.22;;
51266;SDS011;37338;47.426;19.204;2023-07-20T03:03:16;6.63;;;3.47;;
51266;SDS011;37338;47.426;19.204;2023-07-20T03:05:41;10.07;;;2.78;;
51266;SDS011;37338;47.426;19.204;2023-07-20T03:08:07;14.63;;;3.75;;
51266;SDS011;37338;47.426;19.204;2023-07-20T03:10:32;10.90;;;3.20;;
51266;SDS011;37338;47.426;19.204;2023-07-20T03:12:58;6.30;;;3.47;;
51266;SDS011;37338;47.426;19.204;2023-07-20T03:15:23;9.45;;;3.45;;
51266;SDS011;37338;47.426;19.204;2023-07-20T03:17:49;13.68;;;3.67;;
51266;SDS011;37338;47.426;19.204;2023-07-20T03:20:15;7.97;;;3.33;;
51266;SDS011;37338;47.426;19.204;2023-07-20T03:22:40;11.23;;;3.65;;
51266;SDS011;37338;47.426;19.204;2023-07-20T03:25:06;11.32;;;3.65;;
51266;SDS011;37338;47.426;19.204;2023-07-20T03:27:32;9.60;;;3.30;;
51266;SDS011;37338;47.426;19.204;2023-07-20T03:29:57;14.18;;;3.55;;
51266;SDS011;37338;47.426;19.204;2023-07-20T03:32:22;10.50;;;2.60;;
51266;SDS011;37338;47.426;19.204;2023-07-20T03:34:48;7.75;;;3.25;;
51266;SDS011;37338;47.426;19.204;2023-07-20T03:37:13;11.90;;;3.88;;
51266;SDS011;37338;47.426;19.204;2023-07-20T03:39:38;6.45;;;3.08;;
51266;SDS011;37338;47.426;19.204;2023-07-20T03:42:04;6.18;;;3.25;;
51266;SDS011;37338;47.426;19.204;2023-07-20T03:44:30;7.45;;;3.05;;
51266;SDS011;37338;47.426;19.204;2023-07-20T03:46:55;9.65;;;3.38;;
51266;SDS011;37338;47.426;19.204;2023-07-20T03:49:21;12.10;;;4.13;;
51266;SDS011;37338;47.426;19.204;2023-07-20T03:51:46;13.68;;;4.25;;
51266;SDS011;37338;47.426;19.204;2023-07-20T03:54:11;8.35;;;3.58;;
51266;SDS011;37338;47.426;19.204;2023-07-20T03:56:37;11.95;;;4.47;;
51266;SDS011;37338;47.426;19.204;2023-07-20T03:59:02;9.25;;;3.85;;
51266;SDS011;37338;47.426;19.204;2023-07-20T04:01:28;11.30;;;3.30;;
51266;SDS011;37338;47.426;19.204;2023-07-20T04:03:53;15.82;;;3.63;;
51266;SDS011;37338;47.426;19.204;2023-07-20T04:06:19;8.68;;;3.05;;
51266;SDS011;37338;47.426;19.204;2023-07-20T04:08:44;11.85;;;3.67;;
51266;SDS011;37338;47.426;19.204;2023-07-20T04:11:12;15.57;;;4.07;;
51266;SDS011;37338;47.426;19.204;2023-07-20T04:13:37;9.68;;;3.80;;
51266;SDS011;37338;47.426;19.204;2023-07-20T04:16:03;11.43;;;3.80;;
51266;SDS011;37338;47.426;19.204;2023-07-20T04:18:28;6.28;;;2.75;;
51266;SDS011;37338;47.426;19.204;2023-07-20T04:20:53;7.57;;;3.22;;
51266;SDS011;37338;47.426;19.204;2023-07-20T04:23:19;7.95;;;3.45;;
51266;SDS011;37338;47.426;19.204;2023-07-20T04:25:44;13.05;;;3.42;;
51266;SDS011;37338;47.426;19.204;2023-07-20T04:28:10;12.63;;;3.67;;
51266;SDS011;37338;47.426;19.204;2023-07-20T04:30:36;5.68;;;3.22;;
51266;SDS011;37338;47.426;19.204;2023-07-20T04:33:02;8.73;;;3.35;;
51266;SDS011;37338;47.426;19.204;2023-07-20T04:35:46;7.78;;;3.13;;
51266;SDS011;37338;47.426;19.204;2023-07-20T04:38:18;8.50;;;3.28;;
51266;SDS011;37338;47.426;19.204;2023-07-20T04:40:46;12.00;;;4.18;;
51266;SDS011;37338;47.426;19.204;2023-07-20T04:43:13;6.57;;;2.60;;
51266;SDS011;37338;47.426;19.204;2023-07-20T04:45:39;13.35;;;3.45;;
51266;SDS011;37338;47.426;19.204;2023-07-20T04:48:06;19.60;;;4.07;;
51266;SDS011;37338;47.426;19.204;2023-07-20T04:50:34;9.75;;;4.03;;
51266;SDS011;37338;47.426;19.204;2023-07-20T04:53:00;7.85;;;3.92;;
51266;SDS011;37338;47.426;19.204;2023-07-20T04:55:27;9.50;;;2.90;;
51266;SDS011;37338;47.426;19.204;2023-07-20T04:57:53;12.27;;;3.25;;
51266;SDS011;37338;47.426;19.204;2023-07-20T05:00:18;10.35;;;3.22;;
51266;SDS011;37338;47.426;19.204;2023-07-20T05:02:44;19.08;;;3.63;;
51266;SDS011;37338;47.426;19.204;2023-07-20T05:05:10;14.85;;;3.65;;
51266;SDS011;37338;47.426;19.204;2023-07-20T05:07:35;15.38;;;8.48;;
51266;SDS011;37338;47.426;19.204;2023-07-20T05:10:00;11.90;;;4.05;;
51266;SDS011;37338;47.426;19.204;2023-07-20T05:12:26;7.80;;;3.20;;
51266;SDS011;37338;47.426;19.204;2023-07-20T05:14:51;8.77;;;3.25;;
51266;SDS011;37338;47.426;19.204;2023-07-20T05:17:17;9.00;;;3.30;;
51266;SDS011;37338;47.426;19.204;2023-07-20T05:19:42;10.68;;;3.67;;
51266;SDS011;37338;47.426;19.204;2023-07-20T05:22:09;10.38;;;4.45;;
51266;SDS011;37338;47.426;19.204;2023-07-20T05:24:35;10.27;;;3.33;;
51266;SDS011;37338;47.426;19.204;2023-07-20T05:27:01;9.00;;;3.05;;
51266;SDS011;37338;47.426;19.204;2023-07-20T05:29:26;9.35;;;3.00;;
51266;SDS011;37338;47.426;19.204;2023-07-20T05:31:51;4.65;;;2.75;;
51266;SDS011;37338;47.426;19.204;2023-07-20T05:34:17;5.75;;;3.05;;
51266;SDS011;37338;47.426;19.204;2023-07-20T05:36:42;4.85;;;2.60;;
51266;SDS011;37338;47.426;19.204;2023-07-20T05:39:08;5.13;;;2.80;;
51266;SDS011;37338;47.426;19.204;2023-07-20T05:41:33;8.40;;;2.97;;
51266;SDS011;37338;47.426;19.204;2023-07-20T05:43:59;6.93;;;2.83;;
51266;SDS011;37338;47.426;19.204;2023-07-20T05:46:24;5.75;;;2.38;;
51266;SDS011;37338;47.426;19.204;2023-07-20T05:48:50;4.70;;;2.67;;
51266;SDS011;37338;47.426;19.204;2023-07-20T05:51:15;10.00;;;2.63;;
51266;SDS011;37338;47.426;19.204;2023-07-20T05:53:41;13.95;;;3.08;;
51266;SDS011;37338;47.426;19.204;2023-07-20T05:56:06;17.92;;;2.80;;
51266;SDS011;37338;47.426;19.204;2023-07-20T05:58:35;12.18;;;2.83;;
51266;SDS011;37338;47.426;19.204;2023-07-20T06:01:00;26.17;;;3.78;;
51266;SDS011;37338;47.426;19.204;2023-07-20T06:03:27;31.42;;;3.28;;
51266;SDS011;37338;47.426;19.204;2023-07-20T06:05:57;14.80;;;2.88;;
51266;SDS011;37338;47.426;19.204;2023-07-20T06:08:24;8.82;;;3.33;;
51266;SDS011;37338;47.426;19.204;2023-07-20T06:10:50;8.25;;;2.10;;
51266;SDS011;37338;47.426;19.204;2023-07-20T06:13:17;8.43;;;2.08;;
51266;SDS011;37338;47.426;19.204;2023-07-20T06:15:42;19.88;;;3.10;;
51266;SDS011;37338;47.426;19.204;2023-07-20T06:18:08;40.80;;;4.80;;
51266;SDS011;37338;47.426;19.204;2023-07-20T06:20:34;7.70;;;2.47;;
51266;SDS011;37338;47.426;19.204;2023-07-20T06:22:59;4.10;;;2.28;;
51266;SDS011;37338;47.426;19.204;2023-07-20T06:25:24;4.90;;;2.33;;
51266;SDS011;37338;47.426;19.204;2023-07-20T06:27:50;5.07;;;2.40;;
51266;SDS011;37338;47.426;19.204;2023-07-20T06:30:16;5.88;;;2.47;;
51266;SDS011;37338;47.426;19.204;2023-07-20T06:32:42;9.63;;;3.08;;
51266;SDS011;37338;47.426;19.204;2023-07-20T06:35:07;7.20;;;2.67;;
51266;SDS011;37338;47.426;19.204;2023-07-20T06:37:33;4.38;;;3.03;;
51266;SDS011;37338;47.426;19.204;2023-07-20T06:39:59;10.07;;;2.67;;
51266;SDS011;37338;47.426;19.204;2023-07-20T06:42:24;5.68;;;2.58;;
51266;SDS011;37338;47.426;19.204;2023-07-20T06:44:50;4.53;;;2.58;;
51266;SDS011;37338;47.426;19.204;2023-07-20T06:47:15;8.93;;;2.72;;
51266;SDS011;37338;47.426;19.204;2023-07-20T06:49:41;6.47;;;2.78;;
51266;SDS011;37338;47.426;19.204;2023-07-20T06:52:06;7.15;;;2.78;;
51266;SDS011;37338;47.426;19.204;2023-07-20T06:54:32;3.50;;;2.40;;
51266;SDS011;37338;47.426;19.204;2023-07-20T06:56:57;7.47;;;2.65;;
51266;SDS011;37338;47.426;19.204;2023-07-20T06:59:22;4.20;;;2.60;;
51266;SDS011;37338;47.426;19.204;2023-07-20T07:01:49;3.67;;;2.42;;
51266;SDS011;37338;47.426;19.204;2023-07-20T07:04:14;7.88;;;2.83;;
51266;SDS011;37338;47.426;19.204;2023-07-20T07:06:40;8.35;;;2.58;;
51266;SDS011;37338;47.426;19.204;2023-07-20T07:09:06;12.85;;;2.80;;
51266;SDS011;37338;47.426;19.204;2023-07-20T07:11:33;6.90;;;2.50;;
51266;SDS011;37338;47.426;19.204;2023-07-20T07:13:58;7.72;;;2.22;;
51266;SDS011;37338;47.426;19.204;2023-07-20T07:16:24;4.38;;;2.70;;
51266;SDS011;37338;47.426;19.204;2023-07-20T07:18:50;6.82;;;2.70;;
51266;SDS011;37338;47.426;19.204;2023-07-20T07:21:15;5.60;;;2.72;;
51266;SDS011;37338;47.426;19.204;2023-07-20T07:23:41;3.97;;;2.15;;
51266;SDS011;37338;47.426;19.204;2023-07-20T07:26:07;5.53;;;2.65;;
51266;SDS011;37338;47.426;19.204;2023-07-20T07:28:32;3.75;;;2.33;;
51266;SDS011;37338;47.426;19.204;2023-07-20T07:30:57;5.70;;;2.53;;
51266;SDS011;37338;47.426;19.204;2023-07-20T07:33:23;6.13;;;2.20;;
51266;SDS011;37338;47.426;19.204;2023-07-20T07:35:49;9.48;;;2.50;;
51266;SDS011;37338;47.426;19.204;2023-07-20T07:38:18;4.43;;;2.47;;
51266;SDS011;37338;47.426;19.204;2023-07-20T07:40:44;4.55;;;2.40;;
51266;SDS011;37338;47.426;19.204;2023-07-20T07:43:09;7.05;;;2.63;;
51266;SDS011;37338;47.426;19.204;2023-07-20T07:45:35;6.70;;;2.63;;
51266;SDS011;37338;47.426;19.204;2023-07-20T07:48:04;14.23;;;3.40;;
51266;SDS011;37338;47.426;19.204;2023-07-20T07:50:30;6.93;;;2.10;;
51266;SDS011;37338;47.426;19.204;2023-07-20T07:52:56;84.85;;;11.10;;
51266;SDS011;37338;47.426;19.204;2023-07-20T07:55:21;21.25;;;4.03;;
51266;SDS011;37338;47.426;19.204;2023-07-20T07:57:46;25.50;;;4.15;;
51266;SDS011;37338;47.426;19.204;2023-07-20T08:00:13;6.57;;;2.80;;
51266;SDS011;37338;47.426;19.204;2023-07-20T08:02:42;13.13;;;2.92;;
51266;SDS011;37338;47.426;19.204;2023-07-20T08:05:08;6.82;;;2.00;;
51266;SDS011;37338;47.426;19.204;2023-07-20T08:07:34;6.15;;;1.83;;
51266;SDS011;37338;47.426;19.204;2023-07-20T08:10:00;4.22;;;2.03;;
51266;SDS011;37338;47.426;19.204;2023-07-20T08:12:25;2.50;;;1.80;;
51266;SDS011;37338;47.426;19.204;2023-07-20T08:14:51;4.78;;;1.80;;
51266;SDS011;37338;47.426;19.204;2023-07-20T08:17:17;3.28;;;2.08;;
51266;SDS011;37338;47.426;19.204;2023-07-20T08:19:42;4.05;;;1.80;;
51266;SDS011;37338;47.426;19.204;2023-07-20T08:22:09;3.72;;;1.65;;
51266;SDS011;37338;47.426;19.204;2023-07-20T08:24:34;6.43;;;2.25;;
51266;SDS011;37338;47.426;19.204;2023-07-20T08:27:00;4.50;;;1.85;;
51266;SDS011;37338;47.426;19.204;2023-07-20T08:29:25;4.00;;;1.90;;
51266;SDS011;37338;47.426;19.204;2023-07-20T08:31:51;5.70;;;2.35;;
51266;SDS011;37338;47.426;19.204;2023-07-20T08:34:16;5.18;;;2.40;;
51266;SDS011;37338;47.426;19.204;2023-07-20T08:36:41;13.63;;;2.63;;
51266;SDS011;37338;47.426;19.204;2023-07-20T08:39:07;7.72;;;2.15;;
51266;SDS011;37338;47.426;19.204;2023-07-20T08:41:33;10.93;;;3.42;;
51266;SDS011;37338;47.426;19.204;2023-07-20T08:44:02;7.47;;;2.33;;
51266;SDS011;37338;47.426;19.204;2023-07-20T08:46:27;7.30;;;1.98;;
51266;SDS011;37338;47.426;19.204;2023-07-20T08:48:54;3.70;;;1.75;;
51266;SDS011;37338;47.426;19.204;2023-07-20T08:51:20;5.78;;;1.98;;
51266;SDS011;37338;47.426;19.204;2023-07-20T08:53:46;10.57;;;2.60;;
51266;SDS011;37338;47.426;19.204;2023-07-20T08:56:12;7.78;;;1.80;;
51266;SDS011;37338;47.426;19.204;2023-07-20T08:58:39;3.83;;;2.10;;
51266;SDS011;37338;47.426;19.204;2023-07-20T09:01:04;4.07;;;1.55;;
51266;SDS011;37338;47.426;19.204;2023-07-20T09:03:30;4.38;;;1.98;;
51266;SDS011;37338;47.426;19.204;2023-07-20T09:05:55;3.42;;;1.77;;
51266;SDS011;37338;47.426;19.204;2023-07-20T09:08:21;5.68;;;2.33;;
51266;SDS011;37338;47.426;19.204;2023-07-20T09:10:46;6.00;;;1.92;;
51266;SDS011;37338;47.426;19.204;2023-07-20T09:13:15;5.60;;;1.73;;
51266;SDS011;37338;47.426;19.204;2023-07-20T09:15:45;4.55;;;1.88;;
51266;SDS011;37338;47.426;19.204;2023-07-20T09:18:12;4.85;;;2.13;;
51266;SDS011;37338;47.426;19.204;2023-07-20T09:20:52;8.20;;;2.20;;
51266;SDS011;37338;47.426;19.204;2023-07-20T09:23:17;2.92;;;1.30;;
51266;SDS011;37338;47.426;19.204;2023-07-20T09:25:42;4.60;;;1.63;;
51266;SDS011;37338;47.426;19.204;2023-07-20T09:28:08;11.25;;;1.60;;
51266;SDS011;37338;47.426;19.204;2023-07-20T09:30:33;7.70;;;1.90;;
51266;SDS011;37338;47.426;19.204;2023-07-20T09:32:59;3.15;;;1.42;;
51266;SDS011;37338;47.426;19.204;2023-07-20T09:35:25;4.47;;;1.50;;
51266;SDS011;37338;47.426;19.204;2023-07-20T09:37:54;8.27;;;1.77;;
51266;SDS011;37338;47.426;19.204;2023-07-20T09:40:24;7.38;;;1.52;;
51266;SDS011;37338;47.426;19.204;2023-07-20T09:42:49;5.00;;;1.40;;
51266;SDS011;37338;47.426;19.204;2023-07-20T09:45:17;3.35;;;1.90;;
51266;SDS011;37338;47.426;19.204;2023-07-20T09:47:42;4.95;;;1.60;;
51266;SDS011;37338;47.426;19.204;2023-07-20T09:50:08;4.57;;;1.27;;
51266;SDS011;37338;47.426;19.204;2023-07-20T09:52:39;3.50;;;1.65;;
51266;SDS011;37338;47.426;19.204;2023-07-20T09:55:12;3.55;;;1.70;;
51266;SDS011;37338;47.426;19.204;2023-07-20T09:57:38;3.25;;;1.70;;
51266;SDS011;37338;47.426;19.204;2023-07-20T10:00:04;11.00;;;1.80;;
51266;SDS011;37338;47.426;19.204;2023-07-20T10:02:40;7.22;;;1.25;;
51266;SDS011;37338;47.426;19.204;2023-07-20T10:05:08;1.83;;;1.20;;
51266;SDS011;37338;47.426;19.204;2023-07-20T10:07:38;5.47;;;1.50;;
51266;SDS011;37338;47.426;19.204;2023-07-20T10:10:08;5.13;;;1.40;;
51266;SDS011;37338;47.426;19.204;2023-07-20T10:12:35;3.47;;;1.52;;
51266;SDS011;37338;47.426;19.204;2023-07-20T10:15:22;2.53;;;1.23;;
51266;SDS011;37338;47.426;19.204;2023-07-20T10:20:53;4.90;;;1.40;;
51266;SDS011;37338;47.426;19.204;2023-07-20T10:23:19;6.55;;;1.63;;
51266;SDS011;37338;47.426;19.204;2023-07-20T10:25:45;1.75;;;1.10;;
51266;SDS011;37338;47.426;19.204;2023-07-20T10:28:11;6.85;;;1.30;;
51266;SDS011;37338;47.426;19.204;2023-07-20T10:30:36;2.17;;;1.38;;
51266;SDS011;37338;47.426;19.204;2023-07-20T10:33:03;4.00;;;1.10;;
51266;SDS011;37338;47.426;19.204;2023-07-20T10:35:28;3.75;;;1.55;;
51266;SDS011;37338;47.426;19.204;2023-07-20T10:37:56;2.65;;;1.25;;
51266;SDS011;37338;47.426;19.204;2023-07-20T10:40:32;4.00;;;1.55;;
51266;SDS011;37338;47.426;19.204;2023-07-20T10:42:59;6.82;;;1.98;;
51266;SDS011;37338;47.426;19.204;2023-07-20T10:48:22;12.93;;;1.60;;
51266;SDS011;37338;47.426;19.204;2023-07-20T10:53:47;5.68;;;1.40;;
51266;SDS011;37338;47.426;19.204;2023-07-20T10:56:14;6.85;;;1.30;;
51266;SDS011;37338;47.426;19.204;2023-07-20T10:58:44;4.93;;;1.80;;
51266;SDS011;37338;47.426;19.204;2023-07-20T11:01:13;5.50;;;2.63;;
51266;SDS011;37338;47.426;19.204;2023-07-20T11:03:39;3.97;;;1.70;;
51266;SDS011;37338;47.426;19.204;2023-07-20T11:08:49;4.95;;;1.23;;
51266;SDS011;37338;47.426;19.204;2023-07-20T11:11:30;6.25;;;1.73;;
51266;SDS011;37338;47.426;19.204;2023-07-20T11:13:57;3.10;;;1.13;;
51266;SDS011;37338;47.426;19.204;2023-07-20T11:16:36;6.18;;;1.42;;
51266;SDS011;37338;47.426;19.204;2023-07-20T11:19:02;4.95;;;1.10;;
51266;SDS011;37338;47.426;19.204;2023-07-20T11:21:28;5.95;;;1.60;;
51266;SDS011;37338;47.426;19.204;2023-07-20T11:23:55;3.90;;;1.20;;
51266;SDS011;37338;47.426;19.204;2023-07-20T11:26:20;3.35;;;1.10;;
51266;SDS011;37338;47.426;19.204;2023-07-20T11:28:49;2.55;;;1.23;;
51266;SDS011;37338;47.426;19.204;2023-07-20T11:31:16;5.43;;;1.30;;
51266;SDS011;37338;47.426;19.204;2023-07-20T11:33:42;4.68;;;1.58;;
51266;SDS011;37338;47.426;19.204;2023-07-20T11:36:10;6.43;;;1.30;;
51266;SDS011;37338;47.426;19.204;2023-07-20T11:38:36;1.70;;;1.10;;
51266;SDS011;37338;47.426;19.204;2023-07-20T11:41:04;3.20;;;1.60;;
51266;SDS011;37338;47.426;19.204;2023-07-20T11:43:29;3.75;;;1.48;;
51266;SDS011;37338;47.426;19.204;2023-07-20T11:45:55;2.63;;;0.82;;
51266;SDS011;37338;47.426;19.204;2023-07-20T11:48:20;3.55;;;1.20;;
51266;SDS011;37338;47.426;19.204;2023-07-20T11:50:46;5.05;;;1.00;;
51266;SDS011;37338;47.426;19.204;2023-07-20T11:53:12;7.60;;;1.10;;
51266;SDS011;37338;47.426;19.204;2023-07-20T11:55:42;5.40;;;1.40;;
51266;SDS011;37338;47.426;19.204;2023-07-20T11:58:08;3.85;;;0.93;;
51266;SDS011;37338;47.426;19.204;2023-07-20T12:00:34;3.90;;;1.40;;
51266;SDS011;37338;47.426;19.204;2023-07-20T12:03:05;6.28;;;1.00;;
51266;SDS011;37338;47.426;19.204;2023-07-20T12:05:35;1.90;;;1.48;;
51266;SDS011;37338;47.426;19.204;2023-07-20T12:08:00;2.47;;;1.20;;
51266;SDS011;37338;47.426;19.204;2023-07-20T12:10:26;4.15;;;1.48;;
51266;SDS011;37338;47.426;19.204;2023-07-20T12:13:01;5.75;;;0.90;;
51266;SDS011;37338;47.426;19.204;2023-07-20T12:15:30;2.25;;;1.10;;
51266;SDS011;37338;47.426;19.204;2023-07-20T12:17:57;3.65;;;1.40;;
51266;SDS011;37338;47.426;19.204;2023-07-20T12:20:36;3.63;;;1.10;;
51266;SDS011;37338;47.426;19.204;2023-07-20T12:25:32;2.60;;;1.15;;
51266;SDS011;37338;47.426;19.204;2023-07-20T12:28:04;4.07;;;1.10;;
51266;SDS011;37338;47.426;19.204;2023-07-20T12:30:30;4.45;;;1.20;;
51266;SDS011;37338;47.426;19.204;2023-07-20T12:32:55;4.90;;;1.10;;
51266;SDS011;37338;47.426;19.204;2023-07-20T12:35:21;7.50;;;1.45;;
51266;SDS011;37338;47.426;19.204;2023-07-20T12:37:46;4.63;;;1.23;;
51266;SDS011;37338;47.426;19.204;2023-07-20T12:40:14;10.93;;;1.25;;
51266;SDS011;37338;47.426;19.204;2023-07-20T12:42:39;8.43;;;1.40;;
51266;SDS011;37338;47.426;19.204;2023-07-20T12:45:05;3.38;;;1.08;;
51266;SDS011;37338;47.426;19.204;2023-07-20T12:47:30;5.55;;;1.05;;
51266;SDS011;37338;47.426;19.204;2023-07-20T12:49:56;2.30;;;0.80;;
51266;SDS011;37338;47.426;19.204;2023-07-20T12:52:21;7.45;;;1.17;;
51266;SDS011;37338;47.426;19.204;2023-07-20T12:54:46;4.55;;;1.20;;
51266;SDS011;37338;47.426;19.204;2023-07-20T12:57:12;7.35;;;0.90;;
51266;SDS011;37338;47.426;19.204;2023-07-20T12:59:37;4.05;;;1.02;;
51266;SDS011;37338;47.426;19.204;2023-07-20T13:02:02;3.45;;;0.95;;
51266;SDS011;37338;47.426;19.204;2023-07-20T13:04:28;9.93;;;1.17;;
51266;SDS011;37338;47.426;19.204;2023-07-20T13:06:53;4.18;;;0.90;;
51266;SDS011;37338;47.426;19.204;2023-07-20T13:09:19;2.90;;;1.00;;
51266;SDS011;37338;47.426;19.204;2023-07-20T13:11:45;9.88;;;1.10;;
51266;SDS011;37338;47.426;19.204;2023-07-20T13:14:11;2.67;;;1.17;;
51266;SDS011;37338;47.426;19.204;2023-07-20T13:16:36;4.68;;;1.00;;
51266;SDS011;37338;47.426;19.204;2023-07-20T13:19:02;4.75;;;1.17;;
51266;SDS011;37338;47.426;19.204;2023-07-20T13:21:27;8.88;;;1.50;;
51266;SDS011;37338;47.426;19.204;2023-07-20T13:23:53;1.58;;;1.10;;
51266;SDS011;37338;47.426;19.204;2023-07-20T13:26:18;0.93;;;0.60;;
51266;SDS011;37338;47.426;19.204;2023-07-20T13:28:43;4.55;;;1.10;;
51266;SDS011;37338;47.426;19.204;2023-07-20T13:31:09;2.80;;;1.17;;
51266;SDS011;37338;47.426;19.204;2023-07-20T13:33:35;3.53;;;1.10;;
51266;SDS011;37338;47.426;19.204;2023-07-20T13:36:01;4.03;;;0.90;;
51266;SDS011;37338;47.426;19.204;2023-07-20T13:38:26;1.63;;;0.93;;
51266;SDS011;37338;47.426;19.204;2023-07-20T13:40:52;3.53;;;1.10;;
51266;SDS011;37338;47.426;19.204;2023-07-20T13:43:17;1.55;;;0.95;;
51266;SDS011;37338;47.426;19.204;2023-07-20T13:45:43;2.50;;;0.70;;
51266;SDS011;37338;47.426;19.204;2023-07-20T13:48:08;1.77;;;1.20;;
51266;SDS011;37338;47.426;19.204;2023-07-20T13:50:33;4.47;;;0.95;;
51266;SDS011;37338;47.426;19.204;2023-07-20T13:52:59;4.47;;;1.00;;
51266;SDS011;37338;47.426;19.204;2023-07-20T13:55:28;3.67;;;1.13;;
51266;SDS011;37338;47.426;19.204;2023-07-20T13:57:53;2.60;;;0.70;;
51266;SDS011;37338;47.426;19.204;2023-07-20T14:00:19;4.38;;;1.02;;
51266;SDS011;37338;47.426;19.204;2023-07-20T14:02:44;2.22;;;1.13;;
51266;SDS011;37338;47.426;19.204;2023-07-20T14:05:09;2.60;;;0.85;;
51266;SDS011;37338;47.426;19.204;2023-07-20T14:07:35;2.40;;;0.98;;
51266;SDS011;37338;47.426;19.204;2023-07-20T14:10:01;1.65;;;0.63;;
51266;SDS011;37338;47.426;19.204;2023-07-20T14:12:26;4.45;;;1.13;;
51266;SDS011;37338;47.426;19.204;2023-07-20T14:14:52;1.65;;;1.17;;
51266;SDS011;37338;47.426;19.204;2023-07-20T14:17:19;3.55;;;1.27;;
51266;SDS011;37338;47.426;19.204;2023-07-20T14:19:44;4.75;;;1.10;;
51266;SDS011;37338;47.426;19.204;2023-07-20T14:22:09;3.55;;;0.70;;
51266;SDS011;37338;47.426;19.204;2023-07-20T14:24:35;0.80;;;0.52;;
51266;SDS011;37338;47.426;19.204;2023-07-20T14:27:00;1.70;;;0.90;;
51266;SDS011;37338;47.426;19.204;2023-07-20T14:29:26;6.50;;;1.08;;
51266;SDS011;37338;47.426;19.204;2023-07-20T14:31:51;3.88;;;1.65;;
51266;SDS011;37338;47.426;19.204;2023-07-20T14:34:17;3.42;;;1.10;;
51266;SDS011;37338;47.426;19.204;2023-07-20T14:36:44;3.63;;;0.80;;
51266;SDS011;37338;47.426;19.204;2023-07-20T14:39:09;2.17;;;1.15;;
51266;SDS011;37338;47.426;19.204;2023-07-20T14:41:34;3.85;;;1.15;;
51266;SDS011;37338;47.426;19.204;2023-07-20T14:44:00;1.52;;;1.00;;
51266;SDS011;37338;47.426;19.204;2023-07-20T14:46:25;4.88;;;0.80;;
51266;SDS011;37338;47.426;19.204;2023-07-20T14:48:51;5.75;;;1.23;;
51266;SDS011;37338;47.426;19.204;2023-07-20T14:51:17;3.85;;;1.63;;